Bookmark and Share
Track history (hours):
 

Sea Success

Last reported at 2014-Apr-23 13:23 UTC. Time now 2014-Apr-23 19:19 UTC.
Position N 22°18' E 114°08'.

Length 27 m.

Type: High speed craft. MMSI: 477995071.

NotesDate/timePositionNaut miles runAvg speedWind from/ knotsBaromVisibWave heightAir tempDewpointWater temp
2014-Apr-23 13:23N 22°18' E 114°08'6 5.8
2014-Apr-23 12:17N 22°16' E 114°01'810.3
2014-Apr-23 11:32N 22°17' E 114°10'2 1.3
2014-Apr-23 10:12N 22°18' E 114°08'2 2.4
2014-Apr-23 09:33N 22°17' E 114°09'1 0.5
2014-Apr-23 08:33N 22°18' E 114°09'1 0.2
2014-Apr-23 05:27N 22°17' E 114°10'8 8.0
2014-Apr-23 04:29N 22°15' E 114°02'8 4.0
2014-Apr-23 02:33N 22°17' E 114°10'1 0.9
2014-Apr-23 01:06N 22°18' E 114°08'1 0.7
2014-Apr-22 23:33N 22°17' E 114°09'1 1.0
2014-Apr-22 22:29N 22°18' E 114°08'0 0.0
2014-Apr-22 13:25N 22°18' E 114°08'6 5.1
2014-Apr-22 12:10N 22°16' E 114°01'812.0
2014-Apr-22 11:31N 22°17' E 114°10'2 1.4
2014-Apr-22 10:11N 22°18' E 114°08'2 1.0
2014-Apr-22 08:30N 22°17' E 114°09'0 0.0
2014-Apr-22 07:31N 22°17' E 114°09'0 0.0
2014-Apr-22 06:13N 22°17' E 114°09'2 2.1
2014-Apr-22 05:16N 22°19' E 114°09'2 3.0
2014-Apr-22 04:33N 22°17' E 114°09'0 0.0
2014-Apr-22 03:33N 22°17' E 114°09'0 0.1
2014-Apr-22 02:32N 22°17' E 114°10'1 1.1
2014-Apr-22 01:10N 22°18' E 114°08'1 0.9
2014-Apr-21 23:32N 22°17' E 114°10'1 1.0
2014-Apr-21 22:14N 22°18' E 114°08'0 0.0
2014-Apr-21 12:28N 22°18' E 114°08'2 0.8
2014-Apr-21 10:33N 22°17' E 114°10'1 1.0
2014-Apr-21 09:09N 22°18' E 114°08'1 1.4
2014-Apr-21 08:33N 22°18' E 114°09'1 1.3
2014-Apr-21 07:30N 22°18' E 114°08'2 1.0
2014-Apr-21 05:27N 22°17' E 114°10'2 1.2
2014-Apr-21 04:09N 22°18' E 114°08'1 2.1
2014-Apr-21 03:33N 22°17' E 114°09'1 1.2
2014-Apr-21 02:29N 22°18' E 114°08'2 0.8
2014-Apr-21 00:33N 22°17' E 114°10'1 1.1
2014-Apr-20 23:20N 22°19' E 114°09'0 0.4
2014-Apr-20 22:33N 22°18' E 114°09'0 0.0
2014-Apr-20 21:33N 22°18' E 114°09'0 0.0
2014-Apr-20 20:33N 22°18' E 114°09'0 0.0
2014-Apr-20 19:33N 22°18' E 114°09'0 0.0
2014-Apr-20 18:33N 22°18' E 114°09'0 0.0
2014-Apr-20 17:33N 22°18' E 114°09'0 0.0
2014-Apr-20 16:33N 22°18' E 114°09'0 0.0
2014-Apr-20 15:33N 22°18' E 114°09'0 0.0
2014-Apr-20 14:33N 22°18' E 114°09'1 0.7
2014-Apr-20 12:30N 22°18' E 114°08'2 0.8
2014-Apr-20 10:32N 22°17' E 114°10'1 1.1
2014-Apr-20 09:09N 22°18' E 114°08'0 0.1
2014-Apr-20 07:27N 22°18' E 114°08'1 0.7
2014-Apr-20 05:33N 22°17' E 114°10'1 0.9
2014-Apr-20 04:09N 22°18' E 114°08'0 0.2
2014-Apr-20 02:30N 22°18' E 114°08'2 0.8
2014-Apr-20 00:32N 22°17' E 114°10'2 2.2
2014-Apr-19 23:28N 22°19' E 114°09'1 1.4
2014-Apr-19 22:33N 22°18' E 114°09'0 0.0
2014-Apr-19 21:33N 22°18' E 114°09'0 0.0
2014-Apr-19 20:33N 22°18' E 114°09'0 0.0
2014-Apr-19 19:33N 22°18' E 114°09'0 0.0
2014-Apr-19 18:33N 22°18' E 114°09'0 0.0
2014-Apr-19 17:33N 22°18' E 114°09'0 0.0
2014-Apr-19 16:33N 22°18' E 114°09'0 0.0
2014-Apr-19 15:33N 22°18' E 114°09'0 0.0
2014-Apr-19 14:33N 22°18' E 114°09'1 0.6
2014-Apr-19 12:28N 22°18' E 114°08'1 0.7
2014-Apr-19 10:33N 22°17' E 114°10'1 0.9
2014-Apr-19 09:08N 22°18' E 114°08'0 0.2
2014-Apr-19 07:30N 22°18' E 114°08'2 0.8
2014-Apr-19 05:33N 22°17' E 114°10'1 0.4
2014-Apr-19 03:34N 22°18' E 114°09'1 0.6
2014-Apr-19 02:28N 22°18' E 114°08'1 0.8
2014-Apr-19 00:33N 22°17' E 114°10'2 2.0
2014-Apr-18 23:23N 22°19' E 114°09'1 1.6
2014-Apr-18 22:33N 22°18' E 114°09'0 0.0
2014-Apr-18 21:33N 22°18' E 114°09'0 0.0
2014-Apr-18 20:33N 22°18' E 114°09'0 0.0
2014-Apr-18 19:33N 22°18' E 114°09'0 0.0
2014-Apr-18 18:33N 22°18' E 114°09'0 0.0
2014-Apr-18 17:33N 22°18' E 114°09'0 0.0
2014-Apr-18 16:33N 22°18' E 114°09'0 0.0
2014-Apr-18 15:33N 22°18' E 114°09'0 0.0
2014-Apr-18 14:33N 22°18' E 114°09'1 0.6
2014-Apr-18 12:29N 22°18' E 114°08'1 0.7
2014-Apr-18 10:33N 22°17' E 114°10'2 1.1
2014-Apr-18 09:10N 22°18' E 114°08'6 0.2
2014-Apr-17 06:18N 22°17' E 114°02'1 0.4
2014-Apr-17 03:23N 22°16' E 114°02'4 0.9
2014-Apr-16 23:15N 22°17' E 114°05'0 0.0
2014-Apr-16 10:19N 22°17' E 114°05'4 1.2
2014-Apr-16 07:16N 22°15' E 114°02'8 4.4
2014-Apr-16 05:30N 22°17' E 114°10'0 0.0
2014-Apr-16 02:27N 22°17' E 114°10'2 1.2
2014-Apr-16 01:08N 22°18' E 114°08'2 1.1
2014-Apr-15 23:33N 22°17' E 114°10'1 1.1
2014-Apr-15 22:18N 22°18' E 114°08'1 0.1
2014-Apr-15 10:34N 22°17' E 114°10'7 6.6
2014-Apr-15 09:32N 22°17' E 114°02'7 2.2
2014-Apr-15 06:30N 22°17' E 114°09'7 1.8
2014-Apr-15 02:31N 22°16' E 114°02'7 7.6
2014-Apr-15 01:32N 22°17' E 114°10'0 0.1
2014-Apr-14 22:34N 22°17' E 114°09'0 0.0
2014-Apr-14 10:31N 22°17' E 114°09'1 0.1
2014-Apr-13 22:33N 22°18' E 114°08'  

Dump ship's entire track history

sailing weather and tide predictions

Sea Success — VRS4325 — position and weather